Terminal Aerodrome Forecast
Issued by NWS

Home | Current Version | Previous Version | Text Only | Print | Product List | Glossary On
Versions: 1 2 3 4 5 6 7 8 9 10 11 12 13 14
000
FTUS45 KABQ 052325
TAFROW
TAF
KROW 052325Z 0600/0624 25010KT P6SM SCT070 BKN150
     FM060100 16008KT P6SM VCTS BKN080CB BKN140
     FM060800 15006KT P6SM BKN100
     FM061500 VRB06KT P6SM SCT150
     FM061900 02008KT P6SM SCT080 SCT150
     FM062300 03013KT P6SM VCTS BKN080CB BKN140=

USA.gov is the U.S. government's official web portal to all federal, state and local government web resources and services.